Aviation Digital Data Service (ADDS)

Output produced by METARs form (1756 UTC 24 August 2016)
found at http://www.aviationweather.gov/adds/metars/
 
KPIA 241141Z 2412/2512 18012KT P6SM -SHRA VCTS BKN008CB 
     FM241400 21012KT P6SM BKN050 
     FM242300 21008KT P6SM VCTS BKN040CB 
     FM250600 18005KT P6SM BKN070